sensor_id;sensor_type;location;lat;lon;timestamp;P1;durP1;ratioP1;P2;durP2;ratioP2
12467;SDS011;57850;52.922;6.256;2023-11-21T00:01:14;18.98;;;7.43;;
12467;SDS011;57850;52.922;6.256;2023-11-21T00:03:42;17.17;;;7.55;;
12467;SDS011;57850;52.922;6.256;2023-11-21T00:06:10;19.67;;;7.70;;
12467;SDS011;57850;52.922;6.256;2023-11-21T00:08:37;22.02;;;7.68;;
12467;SDS011;57850;52.922;6.256;2023-11-21T00:11:04;20.25;;;8.38;;
12467;SDS011;57850;52.922;6.256;2023-11-21T00:13:31;15.27;;;6.72;;
12467;SDS011;57850;52.922;6.256;2023-11-21T00:15:58;16.45;;;6.85;;
12467;SDS011;57850;52.922;6.256;2023-11-21T00:18:25;19.20;;;7.85;;
12467;SDS011;57850;52.922;6.256;2023-11-21T00:20:51;19.13;;;7.15;;
12467;SDS011;57850;52.922;6.256;2023-11-21T00:23:19;16.70;;;7.38;;
12467;SDS011;57850;52.922;6.256;2023-11-21T00:25:46;16.45;;;7.25;;
12467;SDS011;57850;52.922;6.256;2023-11-21T00:28:12;17.17;;;7.15;;
12467;SDS011;57850;52.922;6.256;2023-11-21T00:30:39;17.25;;;7.50;;
12467;SDS011;57850;52.922;6.256;2023-11-21T00:33:06;15.00;;;7.38;;
12467;SDS011;57850;52.922;6.256;2023-11-21T00:35:33;17.55;;;7.25;;
12467;SDS011;57850;52.922;6.256;2023-11-21T00:38:00;20.95;;;7.28;;
12467;SDS011;57850;52.922;6.256;2023-11-21T00:40:28;21.88;;;8.82;;
12467;SDS011;57850;52.922;6.256;2023-11-21T00:42:54;23.88;;;7.88;;
12467;SDS011;57850;52.922;6.256;2023-11-21T00:45:21;19.95;;;7.10;;
12467;SDS011;57850;52.922;6.256;2023-11-21T00:47:48;20.55;;;6.95;;
12467;SDS011;57850;52.922;6.256;2023-11-21T00:50:13;25.58;;;8.40;;
12467;SDS011;57850;52.922;6.256;2023-11-21T00:52:40;23.83;;;7.32;;
12467;SDS011;57850;52.922;6.256;2023-11-21T00:55:07;19.08;;;7.68;;
12467;SDS011;57850;52.922;6.256;2023-11-21T00:57:36;21.15;;;8.18;;
12467;SDS011;57850;52.922;6.256;2023-11-21T01:00:03;18.30;;;7.50;;
12467;SDS011;57850;52.922;6.256;2023-11-21T01:02:33;16.65;;;7.50;;
12467;SDS011;57850;52.922;6.256;2023-11-21T01:05:00;16.17;;;7.80;;
12467;SDS011;57850;52.922;6.256;2023-11-21T01:07:27;23.90;;;7.15;;
12467;SDS011;57850;52.922;6.256;2023-11-21T01:09:54;20.25;;;7.10;;
12467;SDS011;57850;52.922;6.256;2023-11-21T01:12:21;23.58;;;7.88;;
12467;SDS011;57850;52.922;6.256;2023-11-21T01:14:51;14.40;;;6.40;;
12467;SDS011;57850;52.922;6.256;2023-11-21T01:17:18;19.48;;;7.32;;
12467;SDS011;57850;52.922;6.256;2023-11-21T01:19:44;19.58;;;7.15;;
12467;SDS011;57850;52.922;6.256;2023-11-21T01:22:11;14.30;;;6.45;;
12467;SDS011;57850;52.922;6.256;2023-11-21T01:24:38;22.80;;;8.00;;
12467;SDS011;57850;52.922;6.256;2023-11-21T01:27:04;22.88;;;7.05;;
12467;SDS011;57850;52.922;6.256;2023-11-21T01:29:32;21.65;;;8.30;;
12467;SDS011;57850;52.922;6.256;2023-11-21T01:32:01;25.40;;;7.05;;
12467;SDS011;57850;52.922;6.256;2023-11-21T01:34:28;20.90;;;7.70;;
12467;SDS011;57850;52.922;6.256;2023-11-21T01:36:55;20.23;;;7.50;;
12467;SDS011;57850;52.922;6.256;2023-11-21T01:39:22;17.30;;;7.47;;
12467;SDS011;57850;52.922;6.256;2023-11-21T01:41:49;21.02;;;7.32;;
12467;SDS011;57850;52.922;6.256;2023-11-21T01:44:17;15.85;;;7.60;;
12467;SDS011;57850;52.922;6.256;2023-11-21T01:46:44;24.38;;;8.93;;
12467;SDS011;57850;52.922;6.256;2023-11-21T01:49:13;21.38;;;8.07;;
12467;SDS011;57850;52.922;6.256;2023-11-21T01:51:40;16.13;;;7.82;;
12467;SDS011;57850;52.922;6.256;2023-11-21T01:54:08;17.00;;;7.72;;
12467;SDS011;57850;52.922;6.256;2023-11-21T01:56:36;20.35;;;7.22;;
12467;SDS011;57850;52.922;6.256;2023-11-21T01:59:04;24.17;;;8.10;;
12467;SDS011;57850;52.922;6.256;2023-11-21T02:01:32;14.05;;;7.35;;
12467;SDS011;57850;52.922;6.256;2023-11-21T02:03:58;18.50;;;8.38;;
12467;SDS011;57850;52.922;6.256;2023-11-21T02:06:26;23.35;;;8.15;;
12467;SDS011;57850;52.922;6.256;2023-11-21T02:08:56;24.52;;;8.35;;
12467;SDS011;57850;52.922;6.256;2023-11-21T02:11:22;24.98;;;8.05;;
12467;SDS011;57850;52.922;6.256;2023-11-21T02:13:49;16.67;;;8.60;;
12467;SDS011;57850;52.922;6.256;2023-11-21T02:16:19;15.60;;;7.68;;
12467;SDS011;57850;52.922;6.256;2023-11-21T02:18:46;20.17;;;8.05;;
12467;SDS011;57850;52.922;6.256;2023-11-21T02:21:13;22.55;;;8.43;;
12467;SDS011;57850;52.922;6.256;2023-11-21T02:23:41;26.75;;;9.00;;
12467;SDS011;57850;52.922;6.256;2023-11-21T02:26:09;15.98;;;7.45;;
12467;SDS011;57850;52.922;6.256;2023-11-21T02:28:36;20.77;;;8.13;;
12467;SDS011;57850;52.922;6.256;2023-11-21T02:31:04;21.92;;;8.77;;
12467;SDS011;57850;52.922;6.256;2023-11-21T02:33:30;21.50;;;8.07;;
12467;SDS011;57850;52.922;6.256;2023-11-21T02:35:58;19.92;;;8.52;;
12467;SDS011;57850;52.922;6.256;2023-11-21T02:38:25;15.15;;;8.02;;
12467;SDS011;57850;52.922;6.256;2023-11-21T02:40:53;18.35;;;8.45;;
12467;SDS011;57850;52.922;6.256;2023-11-21T02:43:20;20.15;;;7.72;;
12467;SDS011;57850;52.922;6.256;2023-11-21T02:45:47;15.23;;;7.97;;
12467;SDS011;57850;52.922;6.256;2023-11-21T02:48:13;21.02;;;8.02;;
12467;SDS011;57850;52.922;6.256;2023-11-21T02:50:40;18.92;;;8.23;;
12467;SDS011;57850;52.922;6.256;2023-11-21T02:53:08;12.60;;;7.72;;
12467;SDS011;57850;52.922;6.256;2023-11-21T02:55:36;16.55;;;7.60;;
12467;SDS011;57850;52.922;6.256;2023-11-21T02:58:04;16.63;;;8.82;;
12467;SDS011;57850;52.922;6.256;2023-11-21T03:00:31;17.08;;;8.32;;
12467;SDS011;57850;52.922;6.256;2023-11-21T03:02:57;20.10;;;9.23;;
12467;SDS011;57850;52.922;6.256;2023-11-21T03:05:25;19.33;;;9.05;;
12467;SDS011;57850;52.922;6.256;2023-11-21T03:07:54;20.00;;;9.40;;
12467;SDS011;57850;52.922;6.256;2023-11-21T03:10:20;15.13;;;8.98;;
12467;SDS011;57850;52.922;6.256;2023-11-21T03:12:48;22.48;;;8.85;;
12467;SDS011;57850;52.922;6.256;2023-11-21T03:15:16;29.75;;;9.38;;
12467;SDS011;57850;52.922;6.256;2023-11-21T03:17:42;19.25;;;8.60;;
12467;SDS011;57850;52.922;6.256;2023-11-21T03:20:09;25.48;;;8.40;;
12467;SDS011;57850;52.922;6.256;2023-11-21T03:22:37;17.55;;;8.85;;
12467;SDS011;57850;52.922;6.256;2023-11-21T03:25:04;25.10;;;9.23;;
12467;SDS011;57850;52.922;6.256;2023-11-21T03:27:31;23.23;;;9.55;;
12467;SDS011;57850;52.922;6.256;2023-11-21T03:29:58;28.08;;;10.48;;
12467;SDS011;57850;52.922;6.256;2023-11-21T03:32:26;23.42;;;9.07;;
12467;SDS011;57850;52.922;6.256;2023-11-21T03:34:53;27.10;;;10.75;;
12467;SDS011;57850;52.922;6.256;2023-11-21T03:37:21;22.23;;;9.93;;
12467;SDS011;57850;52.922;6.256;2023-11-21T03:39:48;23.85;;;9.07;;
12467;SDS011;57850;52.922;6.256;2023-11-21T03:42:15;29.25;;;9.60;;
12467;SDS011;57850;52.922;6.256;2023-11-21T03:44:41;28.35;;;11.02;;
12467;SDS011;57850;52.922;6.256;2023-11-21T03:47:08;25.95;;;10.73;;
12467;SDS011;57850;52.922;6.256;2023-11-21T03:49:36;31.33;;;13.23;;
12467;SDS011;57850;52.922;6.256;2023-11-21T03:52:03;34.72;;;12.68;;
12467;SDS011;57850;52.922;6.256;2023-11-21T03:54:30;23.85;;;10.80;;
12467;SDS011;57850;52.922;6.256;2023-11-21T03:56:57;28.92;;;11.15;;
12467;SDS011;57850;52.922;6.256;2023-11-21T03:59:24;33.88;;;14.48;;
12467;SDS011;57850;52.922;6.256;2023-11-21T04:01:50;29.23;;;11.48;;
12467;SDS011;57850;52.922;6.256;2023-11-21T04:04:17;36.35;;;13.77;;
12467;SDS011;57850;52.922;6.256;2023-11-21T04:06:46;33.42;;;12.48;;
12467;SDS011;57850;52.922;6.256;2023-11-21T04:09:12;32.58;;;13.05;;
12467;SDS011;57850;52.922;6.256;2023-11-21T04:11:39;30.13;;;12.27;;
12467;SDS011;57850;52.922;6.256;2023-11-21T04:14:06;34.60;;;14.48;;
12467;SDS011;57850;52.922;6.256;2023-11-21T04:16:32;32.55;;;12.50;;
12467;SDS011;57850;52.922;6.256;2023-11-21T04:18:59;36.90;;;13.20;;
12467;SDS011;57850;52.922;6.256;2023-11-21T04:21:25;25.13;;;12.07;;
12467;SDS011;57850;52.922;6.256;2023-11-21T04:23:53;23.77;;;12.45;;
12467;SDS011;57850;52.922;6.256;2023-11-21T04:26:20;35.88;;;13.88;;
12467;SDS011;57850;52.922;6.256;2023-11-21T04:28:47;30.83;;;13.75;;
12467;SDS011;57850;52.922;6.256;2023-11-21T04:31:13;34.25;;;14.13;;
12467;SDS011;57850;52.922;6.256;2023-11-21T04:33:40;30.77;;;13.32;;
12467;SDS011;57850;52.922;6.256;2023-11-21T04:36:07;39.85;;;14.43;;
12467;SDS011;57850;52.922;6.256;2023-11-21T04:38:34;36.38;;;14.13;;
12467;SDS011;57850;52.922;6.256;2023-11-21T04:41:02;30.42;;;12.93;;
12467;SDS011;57850;52.922;6.256;2023-11-21T04:43:28;35.35;;;14.55;;
12467;SDS011;57850;52.922;6.256;2023-11-21T04:45:55;33.10;;;14.68;;
12467;SDS011;57850;52.922;6.256;2023-11-21T04:48:22;35.08;;;14.35;;
12467;SDS011;57850;52.922;6.256;2023-11-21T04:50:48;34.22;;;14.95;;
12467;SDS011;57850;52.922;6.256;2023-11-21T04:53:15;33.65;;;14.25;;
12467;SDS011;57850;52.922;6.256;2023-11-21T04:55:42;32.45;;;15.38;;
12467;SDS011;57850;52.922;6.256;2023-11-21T04:58:10;32.88;;;14.48;;
12467;SDS011;57850;52.922;6.256;2023-11-21T05:00:37;33.65;;;14.30;;
12467;SDS011;57850;52.922;6.256;2023-11-21T05:03:04;29.88;;;15.30;;
12467;SDS011;57850;52.922;6.256;2023-11-21T05:05:32;31.88;;;14.23;;
12467;SDS011;57850;52.922;6.256;2023-11-21T05:07:59;31.27;;;13.25;;
12467;SDS011;57850;52.922;6.256;2023-11-21T05:10:26;27.83;;;14.02;;
12467;SDS011;57850;52.922;6.256;2023-11-21T05:12:52;32.00;;;14.13;;
12467;SDS011;57850;52.922;6.256;2023-11-21T05:15:21;30.15;;;14.60;;
12467;SDS011;57850;52.922;6.256;2023-11-21T05:17:48;30.13;;;14.23;;
12467;SDS011;57850;52.922;6.256;2023-11-21T05:20:17;28.70;;;13.52;;
12467;SDS011;57850;52.922;6.256;2023-11-21T05:22:46;28.30;;;12.88;;
12467;SDS011;57850;52.922;6.256;2023-11-21T05:25:13;27.65;;;12.80;;
12467;SDS011;57850;52.922;6.256;2023-11-21T05:27:40;30.80;;;13.77;;
12467;SDS011;57850;52.922;6.256;2023-11-21T05:30:07;21.95;;;12.40;;
12467;SDS011;57850;52.922;6.256;2023-11-21T05:32:39;32.78;;;13.52;;
12467;SDS011;57850;52.922;6.256;2023-11-21T05:35:07;30.95;;;14.57;;
12467;SDS011;57850;52.922;6.256;2023-11-21T05:37:37;23.80;;;13.02;;
12467;SDS011;57850;52.922;6.256;2023-11-21T05:40:04;27.95;;;13.10;;
12467;SDS011;57850;52.922;6.256;2023-11-21T05:42:32;29.95;;;14.07;;
12467;SDS011;57850;52.922;6.256;2023-11-21T05:44:58;27.73;;;14.00;;
12467;SDS011;57850;52.922;6.256;2023-11-21T05:47:34;32.05;;;14.13;;
12467;SDS011;57850;52.922;6.256;2023-11-21T05:50:04;22.15;;;11.75;;
12467;SDS011;57850;52.922;6.256;2023-11-21T05:52:35;29.20;;;13.63;;
12467;SDS011;57850;52.922;6.256;2023-11-21T05:55:02;23.90;;;12.75;;
12467;SDS011;57850;52.922;6.256;2023-11-21T05:57:29;22.80;;;12.00;;
12467;SDS011;57850;52.922;6.256;2023-11-21T05:59:56;25.17;;;12.63;;
12467;SDS011;57850;52.922;6.256;2023-11-21T06:02:23;20.85;;;11.48;;
12467;SDS011;57850;52.922;6.256;2023-11-21T06:04:50;22.58;;;11.98;;
12467;SDS011;57850;52.922;6.256;2023-11-21T06:07:18;21.25;;;10.82;;
12467;SDS011;57850;52.922;6.256;2023-11-21T06:09:45;22.40;;;10.90;;
12467;SDS011;57850;52.922;6.256;2023-11-21T06:12:13;22.17;;;12.20;;
12467;SDS011;57850;52.922;6.256;2023-11-21T06:14:41;23.65;;;11.45;;
12467;SDS011;57850;52.922;6.256;2023-11-21T06:17:07;22.27;;;11.85;;
12467;SDS011;57850;52.922;6.256;2023-11-21T06:19:34;27.33;;;11.57;;
12467;SDS011;57850;52.922;6.256;2023-11-21T06:22:01;23.88;;;11.77;;
12467;SDS011;57850;52.922;6.256;2023-11-21T06:24:29;20.02;;;10.63;;
12467;SDS011;57850;52.922;6.256;2023-11-21T06:26:56;21.73;;;11.20;;
12467;SDS011;57850;52.922;6.256;2023-11-21T06:29:23;22.00;;;10.40;;
12467;SDS011;57850;52.922;6.256;2023-11-21T06:31:51;18.50;;;10.52;;
12467;SDS011;57850;52.922;6.256;2023-11-21T06:34:20;20.50;;;11.32;;
12467;SDS011;57850;52.922;6.256;2023-11-21T06:36:46;21.60;;;11.65;;
12467;SDS011;57850;52.922;6.256;2023-11-21T06:39:13;26.95;;;12.13;;
12467;SDS011;57850;52.922;6.256;2023-11-21T06:41:43;25.13;;;12.65;;
12467;SDS011;57850;52.922;6.256;2023-11-21T06:44:09;21.73;;;11.65;;
12467;SDS011;57850;52.922;6.256;2023-11-21T06:46:36;25.40;;;11.60;;
12467;SDS011;57850;52.922;6.256;2023-11-21T06:49:04;23.70;;;12.50;;
12467;SDS011;57850;52.922;6.256;2023-11-21T06:51:31;24.45;;;11.65;;
12467;SDS011;57850;52.922;6.256;2023-11-21T06:53:58;25.85;;;11.98;;
12467;SDS011;57850;52.922;6.256;2023-11-21T06:56:24;21.70;;;11.25;;
12467;SDS011;57850;52.922;6.256;2023-11-21T06:58:52;28.98;;;11.82;;
12467;SDS011;57850;52.922;6.256;2023-11-21T07:01:19;32.00;;;12.63;;
12467;SDS011;57850;52.922;6.256;2023-11-21T07:03:46;28.20;;;12.55;;
12467;SDS011;57850;52.922;6.256;2023-11-21T07:06:12;27.67;;;11.13;;
12467;SDS011;57850;52.922;6.256;2023-11-21T07:08:39;23.48;;;11.30;;
12467;SDS011;57850;52.922;6.256;2023-11-21T07:11:06;22.15;;;10.77;;
12467;SDS011;57850;52.922;6.256;2023-11-21T07:13:33;23.10;;;11.18;;
12467;SDS011;57850;52.922;6.256;2023-11-21T07:16:01;22.77;;;11.57;;
12467;SDS011;57850;52.922;6.256;2023-11-21T07:18:28;18.17;;;9.55;;
12467;SDS011;57850;52.922;6.256;2023-11-21T07:20:54;18.05;;;9.88;;
12467;SDS011;57850;52.922;6.256;2023-11-21T07:23:21;21.63;;;9.82;;
12467;SDS011;57850;52.922;6.256;2023-11-21T07:25:48;24.38;;;10.73;;
12467;SDS011;57850;52.922;6.256;2023-11-21T07:28:15;22.67;;;10.88;;
12467;SDS011;57850;52.922;6.256;2023-11-21T07:30:41;22.65;;;10.73;;
12467;SDS011;57850;52.922;6.256;2023-11-21T07:33:09;23.20;;;10.85;;
12467;SDS011;57850;52.922;6.256;2023-11-21T07:35:36;21.75;;;9.85;;
12467;SDS011;57850;52.922;6.256;2023-11-21T07:38:03;21.13;;;8.93;;
12467;SDS011;57850;52.922;6.256;2023-11-21T07:40:29;15.07;;;8.15;;
12467;SDS011;57850;52.922;6.256;2023-11-21T07:42:56;21.27;;;9.27;;
12467;SDS011;57850;52.922;6.256;2023-11-21T07:45:23;17.52;;;8.52;;
12467;SDS011;57850;52.922;6.256;2023-11-21T07:47:52;18.35;;;8.82;;
12467;SDS011;57850;52.922;6.256;2023-11-21T07:50:21;17.83;;;8.82;;
12467;SDS011;57850;52.922;6.256;2023-11-21T07:52:48;16.77;;;8.43;;
12467;SDS011;57850;52.922;6.256;2023-11-21T07:55:15;16.85;;;8.45;;
12467;SDS011;57850;52.922;6.256;2023-11-21T07:57:42;19.88;;;9.15;;
12467;SDS011;57850;52.922;6.256;2023-11-21T08:00:09;16.65;;;9.20;;
12467;SDS011;57850;52.922;6.256;2023-11-21T08:02:37;20.63;;;9.88;;
12467;SDS011;57850;52.922;6.256;2023-11-21T08:05:04;16.83;;;8.98;;
12467;SDS011;57850;52.922;6.256;2023-11-21T08:07:33;17.58;;;9.63;;
12467;SDS011;57850;52.922;6.256;2023-11-21T08:10:00;20.55;;;11.00;;
12467;SDS011;57850;52.922;6.256;2023-11-21T08:12:28;19.42;;;9.85;;
12467;SDS011;57850;52.922;6.256;2023-11-21T08:14:54;16.67;;;9.13;;
12467;SDS011;57850;52.922;6.256;2023-11-21T08:17:21;20.02;;;10.52;;
12467;SDS011;57850;52.922;6.256;2023-11-21T08:19:48;16.30;;;9.27;;
12467;SDS011;57850;52.922;6.256;2023-11-21T08:22:16;20.15;;;10.25;;
12467;SDS011;57850;52.922;6.256;2023-11-21T08:24:44;21.30;;;10.00;;
12467;SDS011;57850;52.922;6.256;2023-11-21T08:27:11;24.25;;;9.82;;
12467;SDS011;57850;52.922;6.256;2023-11-21T08:29:41;19.88;;;9.85;;
12467;SDS011;57850;52.922;6.256;2023-11-21T08:32:08;21.33;;;9.30;;
12467;SDS011;57850;52.922;6.256;2023-11-21T08:34:34;20.52;;;10.45;;
12467;SDS011;57850;52.922;6.256;2023-11-21T08:37:01;21.75;;;10.20;;
12467;SDS011;57850;52.922;6.256;2023-11-21T08:39:28;16.60;;;8.77;;
12467;SDS011;57850;52.922;6.256;2023-11-21T08:41:56;23.65;;;10.48;;
12467;SDS011;57850;52.922;6.256;2023-11-21T08:44:23;19.73;;;10.27;;
12467;SDS011;57850;52.922;6.256;2023-11-21T08:46:50;21.35;;;9.55;;
12467;SDS011;57850;52.922;6.256;2023-11-21T08:49:16;19.35;;;9.02;;
12467;SDS011;57850;52.922;6.256;2023-11-21T08:51:44;24.65;;;9.80;;
12467;SDS011;57850;52.922;6.256;2023-11-21T08:54:11;17.15;;;8.98;;
12467;SDS011;57850;52.922;6.256;2023-11-21T08:56:37;17.23;;;9.20;;
12467;SDS011;57850;52.922;6.256;2023-11-21T08:59:05;18.20;;;8.95;;
12467;SDS011;57850;52.922;6.256;2023-11-21T09:01:33;15.07;;;8.82;;
12467;SDS011;57850;52.922;6.256;2023-11-21T09:03:59;18.13;;;8.60;;
12467;SDS011;57850;52.922;6.256;2023-11-21T09:06:27;14.18;;;7.55;;
12467;SDS011;57850;52.922;6.256;2023-11-21T09:08:54;14.30;;;7.93;;
12467;SDS011;57850;52.922;6.256;2023-11-21T09:11:20;12.00;;;7.68;;
12467;SDS011;57850;52.922;6.256;2023-11-21T09:13:47;11.57;;;7.65;;
12467;SDS011;57850;52.922;6.256;2023-11-21T09:16:15;13.20;;;7.68;;
12467;SDS011;57850;52.922;6.256;2023-11-21T09:18:41;13.38;;;7.78;;
12467;SDS011;57850;52.922;6.256;2023-11-21T09:21:08;13.93;;;7.88;;
12467;SDS011;57850;52.922;6.256;2023-11-21T09:23:35;15.38;;;8.07;;
12467;SDS011;57850;52.922;6.256;2023-11-21T09:26:02;14.52;;;8.10;;
12467;SDS011;57850;52.922;6.256;2023-11-21T09:28:30;13.95;;;8.57;;
12467;SDS011;57850;52.922;6.256;2023-11-21T09:30:56;15.85;;;9.52;;
12467;SDS011;57850;52.922;6.256;2023-11-21T09:33:24;20.20;;;10.70;;
12467;SDS011;57850;52.922;6.256;2023-11-21T09:35:51;18.00;;;9.82;;
12467;SDS011;57850;52.922;6.256;2023-11-21T09:38:18;16.90;;;10.15;;
12467;SDS011;57850;52.922;6.256;2023-11-21T09:40:44;16.00;;;10.05;;
12467;SDS011;57850;52.922;6.256;2023-11-21T09:43:14;21.70;;;11.52;;
12467;SDS011;57850;52.922;6.256;2023-11-21T09:45:44;21.02;;;11.13;;
12467;SDS011;57850;52.922;6.256;2023-11-21T09:48:13;20.35;;;11.90;;
12467;SDS011;57850;52.922;6.256;2023-11-21T09:50:43;20.75;;;11.68;;
12467;SDS011;57850;52.922;6.256;2023-11-21T09:53:12;23.83;;;13.35;;
12467;SDS011;57850;52.922;6.256;2023-11-21T09:55:42;20.05;;;13.10;;
12467;SDS011;57850;52.922;6.256;2023-11-21T09:58:09;24.30;;;13.77;;
12467;SDS011;57850;52.922;6.256;2023-11-21T10:00:38;23.00;;;12.63;;
12467;SDS011;57850;52.922;6.256;2023-11-21T10:03:06;22.67;;;13.30;;
12467;SDS011;57850;52.922;6.256;2023-11-21T10:05:33;18.88;;;11.88;;
12467;SDS011;57850;52.922;6.256;2023-11-21T10:08:02;18.45;;;11.80;;
12467;SDS011;57850;52.922;6.256;2023-11-21T10:10:33;18.30;;;11.50;;
12467;SDS011;57850;52.922;6.256;2023-11-21T10:13:01;16.23;;;11.20;;
12467;SDS011;57850;52.922;6.256;2023-11-21T10:15:31;18.02;;;11.63;;
12467;SDS011;57850;52.922;6.256;2023-11-21T10:17:59;16.45;;;10.93;;
12467;SDS011;57850;52.922;6.256;2023-11-21T10:20:28;19.13;;;12.18;;
12467;SDS011;57850;52.922;6.256;2023-11-21T10:22:56;17.10;;;11.65;;
12467;SDS011;57850;52.922;6.256;2023-11-21T10:25:24;17.90;;;11.27;;
12467;SDS011;57850;52.922;6.256;2023-11-21T10:27:55;18.40;;;11.73;;
12467;SDS011;57850;52.922;6.256;2023-11-21T10:30:27;16.17;;;11.65;;
12467;SDS011;57850;52.922;6.256;2023-11-21T10:32:56;16.45;;;10.95;;
12467;SDS011;57850;52.922;6.256;2023-11-21T10:35:33;16.27;;;11.32;;
12467;SDS011;57850;52.922;6.256;2023-11-21T10:38:04;16.45;;;11.63;;
12467;SDS011;57850;52.922;6.256;2023-11-21T10:40:34;15.85;;;11.00;;
12467;SDS011;57850;52.922;6.256;2023-11-21T10:43:05;19.33;;;11.02;;
12467;SDS011;57850;52.922;6.256;2023-11-21T10:45:33;18.13;;;11.88;;
12467;SDS011;57850;52.922;6.256;2023-11-21T10:48:04;16.05;;;11.70;;
12467;SDS011;57850;52.922;6.256;2023-11-21T10:50:32;16.17;;;10.95;;
12467;SDS011;57850;52.922;6.256;2023-11-21T10:53:00;18.20;;;11.35;;
12467;SDS011;57850;52.922;6.256;2023-11-21T10:55:28;18.40;;;11.73;;
12467;SDS011;57850;52.922;6.256;2023-11-21T10:57:58;16.73;;;10.93;;
12467;SDS011;57850;52.922;6.256;2023-11-21T11:00:27;19.35;;;12.00;;
12467;SDS011;57850;52.922;6.256;2023-11-21T11:02:54;17.38;;;11.60;;
12467;SDS011;57850;52.922;6.256;2023-11-21T11:05:23;15.85;;;11.18;;
12467;SDS011;57850;52.922;6.256;2023-11-21T11:07:51;15.38;;;10.85;;
12467;SDS011;57850;52.922;6.256;2023-11-21T11:10:25;15.68;;;10.45;;
12467;SDS011;57850;52.922;6.256;2023-11-21T11:12:53;16.00;;;10.90;;
12467;SDS011;57850;52.922;6.256;2023-11-21T11:15:21;15.98;;;10.00;;
12467;SDS011;57850;52.922;6.256;2023-11-21T11:17:49;15.48;;;10.82;;
12467;SDS011;57850;52.922;6.256;2023-11-21T11:20:16;14.65;;;10.30;;
12467;SDS011;57850;52.922;6.256;2023-11-21T11:22:48;14.77;;;10.50;;
12467;SDS011;57850;52.922;6.256;2023-11-21T11:25:35;14.35;;;10.52;;
12467;SDS011;57850;52.922;6.256;2023-11-21T11:28:14;15.57;;;11.05;;
12467;SDS011;57850;52.922;6.256;2023-11-21T11:30:50;13.32;;;9.40;;
12467;SDS011;57850;52.922;6.256;2023-11-21T11:33:30;14.43;;;9.10;;
12467;SDS011;57850;52.922;6.256;2023-11-21T11:36:05;11.77;;;8.48;;
12467;SDS011;57850;52.922;6.256;2023-11-21T11:38:36;11.40;;;8.82;;
12467;SDS011;57850;52.922;6.256;2023-11-21T11:41:03;10.27;;;7.70;;
12467;SDS011;57850;52.922;6.256;2023-11-21T11:43:31;9.82;;;7.22;;
12467;SDS011;57850;52.922;6.256;2023-11-21T11:46:06;8.70;;;6.95;;
12467;SDS011;57850;52.922;6.256;2023-11-21T11:48:34;8.02;;;6.53;;
12467;SDS011;57850;52.922;6.256;2023-11-21T11:51:04;8.88;;;6.72;;
12467;SDS011;57850;52.922;6.256;2023-11-21T11:53:37;9.00;;;6.72;;
12467;SDS011;57850;52.922;6.256;2023-11-21T11:56:25;8.93;;;6.70;;
12467;SDS011;57850;52.922;6.256;2023-11-21T11:58:54;8.55;;;6.72;;
12467;SDS011;57850;52.922;6.256;2023-11-21T12:01:24;12.00;;;6.97;;
12467;SDS011;57850;52.922;6.256;2023-11-21T12:06:59;9.13;;;7.22;;
12467;SDS011;57850;52.922;6.256;2023-11-21T12:09:28;8.40;;;6.20;;
12467;SDS011;57850;52.922;6.256;2023-11-21T12:11:56;7.97;;;6.20;;
12467;SDS011;57850;52.922;6.256;2023-11-21T12:14:23;10.27;;;6.78;;
12467;SDS011;57850;52.922;6.256;2023-11-21T12:16:52;8.50;;;6.25;;
12467;SDS011;57850;52.922;6.256;2023-11-21T12:19:19;7.82;;;6.22;;
12467;SDS011;57850;52.922;6.256;2023-11-21T12:21:47;7.10;;;5.72;;
12467;SDS011;57850;52.922;6.256;2023-11-21T12:24:15;6.75;;;5.75;;
12467;SDS011;57850;52.922;6.256;2023-11-21T12:26:42;7.65;;;6.18;;
12467;SDS011;57850;52.922;6.256;2023-11-21T12:29:10;7.78;;;6.40;;
12467;SDS011;57850;52.922;6.256;2023-11-21T12:31:37;7.25;;;5.93;;
12467;SDS011;57850;52.922;6.256;2023-11-21T12:34:05;7.35;;;6.13;;
12467;SDS011;57850;52.922;6.256;2023-11-21T12:36:32;6.85;;;5.90;;
12467;SDS011;57850;52.922;6.256;2023-11-21T12:38:59;7.40;;;5.60;;
12467;SDS011;57850;52.922;6.256;2023-11-21T12:41:27;7.15;;;5.03;;
12467;SDS011;57850;52.922;6.256;2023-11-21T12:43:54;7.38;;;6.10;;
12467;SDS011;57850;52.922;6.256;2023-11-21T12:46:21;7.20;;;5.85;;
12467;SDS011;57850;52.922;6.256;2023-11-21T12:48:48;8.82;;;5.72;;
12467;SDS011;57850;52.922;6.256;2023-11-21T12:51:16;6.22;;;5.13;;
12467;SDS011;57850;52.922;6.256;2023-11-21T12:53:43;6.78;;;5.28;;
12467;SDS011;57850;52.922;6.256;2023-11-21T12:56:12;8.55;;;5.65;;
12467;SDS011;57850;52.922;6.256;2023-11-21T12:58:44;6.57;;;5.13;;
12467;SDS011;57850;52.922;6.256;2023-11-21T13:01:12;7.88;;;5.05;;
12467;SDS011;57850;52.922;6.256;2023-11-21T13:03:43;5.97;;;4.65;;
12467;SDS011;57850;52.922;6.256;2023-11-21T13:06:13;5.18;;;4.63;;
12467;SDS011;57850;52.922;6.256;2023-11-21T13:08:43;8.27;;;4.55;;
12467;SDS011;57850;52.922;6.256;2023-11-21T13:11:10;5.95;;;4.57;;
12467;SDS011;57850;52.922;6.256;2023-11-21T13:13:40;7.60;;;5.28;;
12467;SDS011;57850;52.922;6.256;2023-11-21T13:16:07;6.20;;;5.00;;
12467;SDS011;57850;52.922;6.256;2023-11-21T13:18:35;5.22;;;4.63;;
12467;SDS011;57850;52.922;6.256;2023-11-21T13:21:02;5.88;;;4.40;;
12467;SDS011;57850;52.922;6.256;2023-11-21T13:23:35;6.97;;;5.13;;
12467;SDS011;57850;52.922;6.256;2023-11-21T13:26:04;5.50;;;4.30;;
12467;SDS011;57850;52.922;6.256;2023-11-21T13:28:31;5.97;;;4.97;;
12467;SDS011;57850;52.922;6.256;2023-11-21T13:30:59;7.20;;;5.18;;
12467;SDS011;57850;52.922;6.256;2023-11-21T13:33:29;7.57;;;5.18;;
12467;SDS011;57850;52.922;6.256;2023-11-21T13:35:58;5.65;;;4.70;;
12467;SDS011;57850;52.922;6.256;2023-11-21T13:38:26;6.10;;;5.18;;
12467;SDS011;57850;52.922;6.256;2023-11-21T13:40:58;7.80;;;5.43;;
12467;SDS011;57850;52.922;6.256;2023-11-21T13:43:26;4.95;;;4.30;;
12467;SDS011;57850;52.922;6.256;2023-11-21T13:45:54;5.38;;;4.57;;
12467;SDS011;57850;52.922;6.256;2023-11-21T13:48:26;6.18;;;4.32;;
12467;SDS011;57850;52.922;6.256;2023-11-21T13:50:59;6.00;;;4.32;;
12467;SDS011;57850;52.922;6.256;2023-11-21T13:53:33;5.50;;;3.92;;
12467;SDS011;57850;52.922;6.256;2023-11-21T13:56:03;5.57;;;4.70;;
12467;SDS011;57850;52.922;6.256;2023-11-21T13:58:32;5.80;;;4.70;;
12467;SDS011;57850;52.922;6.256;2023-11-21T14:01:09;6.32;;;4.43;;
12467;SDS011;57850;52.922;6.256;2023-11-21T14:03:49;5.82;;;3.92;;
12467;SDS011;57850;52.922;6.256;2023-11-21T14:06:21;9.15;;;5.18;;
12467;SDS011;57850;52.922;6.256;2023-11-21T14:08:53;5.03;;;4.20;;
12467;SDS011;57850;52.922;6.256;2023-11-21T14:11:21;6.25;;;4.35;;
12467;SDS011;57850;52.922;6.256;2023-11-21T14:13:49;5.43;;;3.95;;
12467;SDS011;57850;52.922;6.256;2023-11-21T14:16:16;5.43;;;3.95;;
12467;SDS011;57850;52.922;6.256;2023-11-21T14:18:43;5.50;;;4.40;;
12467;SDS011;57850;52.922;6.256;2023-11-21T14:21:18;5.95;;;4.30;;
12467;SDS011;57850;52.922;6.256;2023-11-21T14:23:44;6.25;;;4.47;;
12467;SDS011;57850;52.922;6.256;2023-11-21T14:26:11;5.47;;;4.30;;
12467;SDS011;57850;52.922;6.256;2023-11-21T14:28:40;5.55;;;4.15;;
12467;SDS011;57850;52.922;6.256;2023-11-21T14:31:09;6.60;;;4.85;;
12467;SDS011;57850;52.922;6.256;2023-11-21T14:33:39;6.35;;;5.03;;
12467;SDS011;57850;52.922;6.256;2023-11-21T14:36:06;5.53;;;4.45;;
12467;SDS011;57850;52.922;6.256;2023-11-21T14:38:35;6.93;;;4.55;;